Time;durP1;ratioP1;P1;durP2;ratioP2;P2;SDS_P1;SDS_P2;PMS_P1;PMS_P2;Temp;Humidity;BMP_temperature;BMP_pressure;BME280_temperature;BME280_humidity;BME280_pressure;Samples;Min_cycle;Max_cycle;Signal;HPM_P1;HPM_P2
2020/12/24 00:01:20;;;;;;;0.87;0.67;;;11.90;99.90;;;;;;5094050;28;20639;-67
2020/12/24 00:03:45;;;;;;;2.70;1.27;;;11.80;99.90;;;;;;5094332;28;20180;-67
2020/12/24 00:06:11;;;;;;;1.47;0.90;;;11.90;99.90;;;;;;5094187;28;20173;-67
2020/12/24 00:08:36;;;;;;;1.70;0.87;;;11.80;99.90;;;;;;5093602;28;20246;-66
2020/12/24 00:11:03;;;;;;;0.60;0.47;;;11.90;99.90;;;;;;5092328;28;20191;-66
2020/12/24 00:13:29;;;;;;;1.30;1.20;;;11.90;99.90;;;;;;5093238;28;20248;-65
2020/12/24 00:15:54;;;;;;;0.80;0.60;;;11.90;99.90;;;;;;5093551;28;20883;-66
2020/12/24 00:18:20;;;;;;;0.90;0.60;;;11.80;99.90;;;;;;5093472;28;20187;-66
2020/12/24 00:20:47;;;;;;;6.43;1.00;;;11.90;99.90;;;;;;5093383;28;20189;-67
2020/12/24 00:23:12;;;;;;;0.90;0.80;;;12.00;99.90;;;;;;5093839;28;20166;-67
2020/12/24 00:25:39;;;;;;;1.40;0.63;;;12.10;99.90;;;;;;5093689;28;20412;-67
2020/12/24 00:28:06;;;;;;;1.30;0.60;;;12.00;99.90;;;;;;5094050;28;20429;-66
2020/12/24 00:30:31;;;;;;;0.97;0.60;;;12.00;99.90;;;;;;5093498;28;20443;-67
2020/12/24 00:32:57;;;;;;;1.00;0.50;;;12.00;99.90;;;;;;5093307;28;20740;-67
2020/12/24 00:35:22;;;;;;;1.43;0.50;;;12.00;99.90;;;;;;5093665;28;20158;-66
2020/12/24 00:37:48;;;;;;;1.13;0.70;;;12.00;99.90;;;;;;5093369;28;20305;-68
2020/12/24 00:40:14;;;;;;;1.07;0.80;;;12.20;99.90;;;;;;5110945;28;20574;-67
2020/12/24 00:42:39;;;;;;;1.50;0.70;;;12.20;99.90;;;;;;5114106;28;20180;-67
2020/12/24 00:45:05;;;;;;;0.80;0.70;;;12.10;99.90;;;;;;5112588;28;20173;-66
2020/12/24 00:47:31;;;;;;;1.30;0.60;;;12.10;99.90;;;;;;5093820;28;20170;-67
2020/12/24 00:49:56;;;;;;;1.87;0.80;;;12.10;99.90;;;;;;5089017;28;20232;-66
2020/12/24 00:52:22;;;;;;;0.80;0.60;;;12.00;99.90;;;;;;5093720;28;20162;-67
2020/12/24 00:54:47;;;;;;;1.23;0.60;;;12.10;99.90;;;;;;5093467;28;20615;-67
2020/12/24 00:57:13;;;;;;;3.20;0.90;;;11.90;99.90;;;;;;5093209;28;20169;-67
2020/12/24 00:59:38;;;;;;;1.67;0.90;;;12.00;99.90;;;;;;5093085;28;20195;-67
2020/12/24 01:02:04;;;;;;;1.33;0.70;;;12.00;99.90;;;;;;5093439;28;20169;-67
2020/12/24 01:04:29;;;;;;;0.80;0.60;;;11.90;99.90;;;;;;5092966;28;20174;-67
2020/12/24 01:06:55;;;;;;;0.87;0.70;;;11.80;99.90;;;;;;5093105;28;20211;-67
2020/12/24 01:09:21;;;;;;;1.30;0.90;;;11.70;99.90;;;;;;5093101;28;20207;-66
2020/12/24 01:11:47;;;;;;;1.00;0.67;;;11.60;99.90;;;;;;5092973;28;20726;-67
2020/12/24 01:14:12;;;;;;;2.50;0.87;;;11.70;99.90;;;;;;5093117;28;20395;-67
2020/12/24 01:16:38;;;;;;;2.00;0.67;;;11.90;99.90;;;;;;5093870;28;20369;-67
2020/12/24 01:19:03;;;;;;;1.33;0.80;;;11.80;99.90;;;;;;5092837;28;20197;-67
2020/12/24 01:21:30;;;;;;;1.13;0.70;;;11.50;99.90;;;;;;5093028;28;20180;-66
2020/12/24 01:23:56;;;;;;;1.07;0.60;;;11.70;99.90;;;;;;5094689;28;20717;-67
2020/12/24 01:26:22;;;;;;;2.00;0.60;;;11.80;99.90;;;;;;5096800;28;20396;-66
2020/12/24 01:28:47;;;;;;;0.80;0.60;;;11.70;99.90;;;;;;5096558;28;20539;-67
2020/12/24 01:31:13;;;;;;;1.10;0.60;;;11.80;99.90;;;;;;5096906;28;20206;-67
2020/12/24 01:33:38;;;;;;;1.03;0.80;;;11.80;99.90;;;;;;5096978;28;20574;-67
2020/12/24 01:36:04;;;;;;;1.40;0.63;;;11.80;99.90;;;;;;5096980;28;20335;-66
2020/12/24 01:38:29;;;;;;;0.80;0.60;;;11.80;99.90;;;;;;5096751;28;20621;-67
2020/12/24 01:40:57;;;;;;;0.80;0.60;;;11.90;99.90;;;;;;5096673;28;20166;-67
2020/12/24 01:43:22;;;;;;;0.87;0.77;;;11.90;99.90;;;;;;5096389;28;20551;-67
2020/12/24 01:45:58;;;;;;;1.00;0.60;;;11.90;99.90;;;;;;5096502;28;20487;-68
2020/12/24 01:48:25;;;;;;;2.20;0.87;;;11.90;99.90;;;;;;5075041;28;20696;-66
2020/12/24 01:50:50;;;;;;;0.80;0.60;;;11.70;99.90;;;;;;5076066;28;21015;-67
2020/12/24 01:53:22;;;;;;;1.07;0.70;;;11.60;99.90;;;;;;5074550;28;20492;-67
2020/12/24 01:55:49;;;;;;;0.90;0.80;;;11.60;99.90;;;;;;5075854;28;20170;-67
2020/12/24 01:58:15;;;;;;;1.30;0.93;;;11.50;99.90;;;;;;5074815;28;20926;-67
2020/12/24 02:00:47;;;;;;;1.93;0.80;;;11.50;99.90;;;;;;5076010;28;20416;-67
2020/12/24 02:03:17;;;;;;;2.33;0.60;;;11.30;99.90;;;;;;5075989;28;20400;-67
2020/12/24 02:05:43;;;;;;;0.90;0.60;;;11.50;99.90;;;;;;5075223;28;20896;-67
2020/12/24 02:08:10;;;;;;;1.40;0.70;;;11.50;99.90;;;;;;5075320;28;20535;-67
2020/12/24 02:10:35;;;;;;;1.17;1.00;;;11.40;99.90;;;;;;5075560;28;20447;-66
2020/12/24 02:13:01;;;;;;;1.20;0.70;;;11.50;99.90;;;;;;5075618;28;20435;-67
2020/12/24 02:15:27;;;;;;;1.27;0.70;;;11.50;99.90;;;;;;5076049;28;20162;-67
2020/12/24 02:17:52;;;;;;;1.80;0.70;;;11.40;99.90;;;;;;5075635;28;20780;-66
2020/12/24 02:20:18;;;;;;;2.23;0.90;;;11.10;99.90;;;;;;5075186;28;20197;-66
2020/12/24 02:22:44;;;;;;;1.10;0.70;;;10.80;99.90;;;;;;5075452;28;20242;-66
2020/12/24 02:25:09;;;;;;;1.53;0.80;;;10.90;99.90;;;;;;5075449;28;20760;-67
2020/12/24 02:27:35;;;;;;;0.80;0.70;;;10.90;99.90;;;;;;5075284;28;20778;-67
2020/12/24 02:30:02;;;;;;;1.17;0.63;;;10.90;99.90;;;;;;5075405;28;20186;-67
2020/12/24 02:32:29;;;;;;;1.57;0.60;;;10.70;99.90;;;;;;5075237;28;20170;-67
2020/12/24 02:34:55;;;;;;;0.80;0.80;;;10.70;99.90;;;;;;5074503;28;20755;-66
2020/12/24 02:37:24;;;;;;;0.93;0.60;;;10.60;99.90;;;;;;5074061;28;20498;-66
2020/12/24 02:39:51;;;;;;;0.90;0.60;;;10.70;99.90;;;;;;5074822;28;20194;-66
2020/12/24 02:42:18;;;;;;;2.23;0.80;;;10.60;99.90;;;;;;5087588;28;20408;-66
2020/12/24 02:44:44;;;;;;;1.27;0.70;;;10.60;99.90;;;;;;5110674;28;20405;-66
2020/12/24 02:47:10;;;;;;;1.67;1.13;;;10.70;99.90;;;;;;5115852;28;20432;-66
2020/12/24 02:49:35;;;;;;;2.27;0.90;;;10.70;99.90;;;;;;5115404;28;20418;-66
2020/12/24 02:52:01;;;;;;;2.80;0.93;;;10.80;99.90;;;;;;5115514;28;20963;-66
2020/12/24 02:54:26;;;;;;;1.10;0.60;;;10.90;99.90;;;;;;5115438;28;20161;-66
2020/12/24 02:56:52;;;;;;;0.80;0.57;;;11.00;99.90;;;;;;5115458;28;20215;-66
2020/12/24 02:59:18;;;;;;;1.10;0.83;;;11.10;99.90;;;;;;5095535;28;20182;-66
2020/12/24 03:01:43;;;;;;;1.30;0.80;;;11.10;99.90;;;;;;5074921;28;20168;-66
2020/12/24 03:04:09;;;;;;;1.00;0.50;;;11.00;99.90;;;;;;5075130;28;20171;-66
2020/12/24 03:06:34;;;;;;;2.40;0.90;;;11.00;99.90;;;;;;5074835;28;20180;-66
2020/12/24 03:09:00;;;;;;;1.90;0.60;;;10.90;99.90;;;;;;5074313;28;20225;-66
2020/12/24 03:11:25;;;;;;;1.43;0.50;;;10.80;99.90;;;;;;5074477;28;20194;-66
2020/12/24 03:13:51;;;;;;;1.70;0.70;;;10.70;99.90;;;;;;5075047;28;20201;-66
2020/12/24 03:16:17;;;;;;;0.70;0.50;;;10.60;99.90;;;;;;5074624;28;20197;-67
2020/12/24 03:18:42;;;;;;;1.30;0.60;;;10.70;99.90;;;;;;5075037;28;20197;-72
2020/12/24 03:21:08;;;;;;;0.80;0.70;;;10.70;99.90;;;;;;5074965;28;20522;-66
2020/12/24 03:23:33;;;;;;;1.70;0.67;;;10.60;99.90;;;;;;5074244;28;20509;-66
2020/12/24 03:25:59;;;;;;;0.77;0.57;;;10.70;99.90;;;;;;5074594;28;20632;-66
2020/12/24 03:28:24;;;;;;;1.43;0.60;;;10.80;99.90;;;;;;5074131;28;20195;-66
2020/12/24 03:30:50;;;;;;;2.80;0.80;;;10.90;99.90;;;;;;5073250;28;20220;-66
2020/12/24 03:33:15;;;;;;;0.67;0.47;;;10.90;99.90;;;;;;5074606;28;20252;-67
2020/12/24 03:35:41;;;;;;;0.70;0.60;;;10.80;99.90;;;;;;5075029;28;20181;-66
2020/12/24 03:38:07;;;;;;;1.23;0.60;;;10.80;99.90;;;;;;5074149;28;20602;-66
2020/12/24 03:40:33;;;;;;;2.17;0.60;;;10.70;99.90;;;;;;5078649;28;20465;-67
2020/12/24 03:42:58;;;;;;;1.07;0.57;;;10.90;99.90;;;;;;5090877;28;20531;-66
2020/12/24 03:45:24;;;;;;;1.37;0.60;;;10.60;99.90;;;;;;5094571;28;20176;-66
2020/12/24 03:47:50;;;;;;;1.50;0.50;;;10.70;99.90;;;;;;5093234;28;20193;-66
2020/12/24 03:50:15;;;;;;;0.70;0.50;;;10.80;99.90;;;;;;5094148;28;20229;-66
2020/12/24 03:52:41;;;;;;;0.70;0.50;;;10.80;99.90;;;;;;5093947;28;20165;-66
2020/12/24 03:55:06;;;;;;;0.87;0.70;;;10.60;99.90;;;;;;5093716;28;20172;-66
2020/12/24 03:57:32;;;;;;;1.27;0.57;;;10.20;99.90;;;;;;5094251;28;20175;-66
2020/12/24 03:59:58;;;;;;;1.90;0.50;;;10.20;99.90;;;;;;5093121;28;20670;-66
2020/12/24 04:02:23;;;;;;;1.00;0.60;;;9.90;99.90;;;;;;5073974;28;20680;-65
2020/12/24 04:04:49;;;;;;;1.50;0.97;;;9.90;99.90;;;;;;5073171;28;20255;-65
2020/12/24 04:07:14;;;;;;;1.00;0.70;;;9.90;99.90;;;;;;5073831;28;20185;-67
2020/12/24 04:09:40;;;;;;;1.20;0.80;;;9.90;99.90;;;;;;5073244;28;20173;-66
2020/12/24 04:12:05;;;;;;;1.73;0.60;;;9.90;99.90;;;;;;5073461;28;20177;-66
2020/12/24 04:14:31;;;;;;;2.00;0.70;;;10.00;99.90;;;;;;5073550;28;20177;-66
2020/12/24 04:16:57;;;;;;;1.93;1.00;;;10.00;99.90;;;;;;5073598;28;20183;-66
2020/12/24 04:19:22;;;;;;;1.03;0.70;;;9.80;99.90;;;;;;5072984;28;20207;-66
2020/12/24 04:21:48;;;;;;;3.43;1.00;;;9.70;99.90;;;;;;5072047;28;20173;-66
2020/12/24 04:24:14;;;;;;;3.43;0.60;;;9.70;99.90;;;;;;5073312;28;20177;-66
2020/12/24 04:26:39;;;;;;;2.40;0.70;;;9.80;99.90;;;;;;5073329;28;20577;-66
2020/12/24 04:29:05;;;;;;;2.00;1.07;;;9.70;99.90;;;;;;5073265;28;20210;-66
2020/12/24 04:31:30;;;;;;;1.63;0.73;;;9.70;99.90;;;;;;5073351;28;20675;-66
2020/12/24 04:33:56;;;;;;;1.27;0.70;;;9.80;99.90;;;;;;5073089;28;20223;-66
2020/12/24 04:36:21;;;;;;;0.90;0.60;;;9.80;99.90;;;;;;5073130;28;20260;-66
2020/12/24 04:38:47;;;;;;;1.40;0.57;;;9.80;99.90;;;;;;5072823;28;20200;-66
2020/12/24 04:41:13;;;;;;;1.70;0.60;;;9.80;99.90;;;;;;5073415;28;20170;-66
2020/12/24 04:43:39;;;;;;;1.87;0.90;;;9.70;99.90;;;;;;5073651;28;20196;-66
2020/12/24 04:46:07;;;;;;;0.90;0.60;;;9.70;99.90;;;;;;5073288;28;20181;-66
2020/12/24 04:48:33;;;;;;;1.90;0.60;;;9.80;99.90;;;;;;5073589;28;20462;-66
2020/12/24 04:51:01;;;;;;;1.37;0.60;;;10.00;99.90;;;;;;5077239;28;20468;-67
2020/12/24 04:53:26;;;;;;;1.37;0.70;;;10.10;99.90;;;;;;5094101;28;20488;-66
2020/12/24 04:55:54;;;;;;;1.00;0.57;;;10.20;99.90;;;;;;5092996;28;20440;-66
2020/12/24 04:58:20;;;;;;;1.27;0.60;;;10.20;99.90;;;;;;5094265;28;20284;-65
2020/12/24 05:00:47;;;;;;;1.03;0.60;;;10.30;99.90;;;;;;5098544;28;20414;-66
2020/12/24 05:03:13;;;;;;;0.70;0.50;;;10.30;99.90;;;;;;5098215;28;20454;-66
2020/12/24 05:05:39;;;;;;;1.13;0.50;;;10.20;99.90;;;;;;5081612;28;20942;-66
2020/12/24 05:08:07;;;;;;;2.90;0.60;;;10.20;99.90;;;;;;5077099;28;20442;-65
2020/12/24 05:10:34;;;;;;;0.70;0.50;;;10.00;99.90;;;;;;5076922;28;20454;-66
2020/12/24 05:13:13;;;;;;;1.07;0.50;;;9.90;99.90;;;;;;5076971;28;20413;-66
2020/12/24 05:15:39;;;;;;;0.60;0.50;;;9.90;99.90;;;;;;5077231;28;20430;-66
2020/12/24 05:18:18;;;;;;;0.67;0.50;;;9.80;99.90;;;;;;5076903;28;21016;-66
2020/12/24 05:20:43;;;;;;;1.60;0.63;;;9.90;99.90;;;;;;5076315;28;20229;-65
2020/12/24 05:23:14;;;;;;;1.20;1.10;;;9.80;99.90;;;;;;5076664;28;20420;-66
2020/12/24 05:25:40;;;;;;;0.93;0.60;;;9.60;99.90;;;;;;5076665;28;20173;-65
2020/12/24 05:28:06;;;;;;;3.03;0.73;;;9.50;99.90;;;;;;5076920;28;20471;-66
2020/12/24 05:30:32;;;;;;;0.80;0.50;;;9.60;99.90;;;;;;5076307;28;20450;-66
2020/12/24 05:32:59;;;;;;;2.90;0.60;;;9.40;99.90;;;;;;5076662;28;20226;-66
2020/12/24 05:35:26;;;;;;;1.97;0.87;;;9.40;99.90;;;;;;5076304;28;20420;-66
2020/12/24 05:37:53;;;;;;;1.47;0.67;;;9.40;99.90;;;;;;5076483;28;20510;-66
2020/12/24 05:40:33;;;;;;;1.93;0.70;;;9.50;99.90;;;;;;5075856;28;20415;-66
2020/12/24 05:43:01;;;;;;;0.80;0.60;;;9.50;99.90;;;;;;5076542;28;20391;-66
2020/12/24 05:45:29;;;;;;;0.80;0.63;;;9.30;99.90;;;;;;5076131;28;20882;-66
2020/12/24 05:48:12;;;;;;;2.07;0.80;;;9.30;99.90;;;;;;5076267;28;20448;-66
2020/12/24 05:50:38;;;;;;;1.20;0.70;;;9.10;99.90;;;;;;5075961;28;20452;-66
2020/12/24 05:53:12;;;;;;;1.20;0.70;;;9.00;99.90;;;;;;5076285;28;20406;-66
2020/12/24 05:55:39;;;;;;;1.53;0.80;;;9.00;99.90;;;;;;5075961;28;20537;-66
2020/12/24 05:58:07;;;;;;;1.23;0.70;;;9.10;99.90;;;;;;5075763;28;20438;-66
2020/12/24 06:00:40;;;;;;;2.20;0.97;;;9.10;99.90;;;;;;5074656;28;20541;-65
2020/12/24 06:03:18;;;;;;;1.30;0.60;;;9.00;99.90;;;;;;5076102;28;20774;-66
2020/12/24 06:05:57;;;;;;;2.13;0.90;;;9.00;99.90;;;;;;5075292;28;20417;-66
2020/12/24 06:08:28;;;;;;;0.80;0.67;;;9.00;99.90;;;;;;5075722;28;20961;-66
2020/12/24 06:11:04;;;;;;;2.30;1.07;;;8.90;99.90;;;;;;5074493;28;20499;-66
2020/12/24 06:13:43;;;;;;;1.97;1.00;;;9.00;99.90;;;;;;5075853;28;20407;-66
2020/12/24 06:16:13;;;;;;;2.10;1.20;;;9.00;99.90;;;;;;5075628;28;20386;-66
2020/12/24 06:18:42;;;;;;;1.13;0.80;;;9.00;99.90;;;;;;5075428;28;20442;-66
2020/12/24 06:21:17;;;;;;;1.17;0.87;;;9.00;99.90;;;;;;5075639;28;20399;-65
2020/12/24 06:23:51;;;;;;;1.83;0.90;;;8.90;99.90;;;;;;5075782;28;20424;-66
2020/12/24 06:26:24;;;;;;;1.13;0.80;;;8.80;99.90;;;;;;5075739;28;20388;-66
2020/12/24 06:28:57;;;;;;;2.70;0.80;;;8.90;99.90;;;;;;5075791;28;20795;-66
2020/12/24 06:31:24;;;;;;;2.40;0.90;;;8.90;99.90;;;;;;5075518;28;20537;-66
2020/12/24 06:33:50;;;;;;;3.53;0.70;;;8.90;99.90;;;;;;5079953;28;20451;-66
2020/12/24 06:36:35;;;;;;;1.97;0.83;;;9.00;99.90;;;;;;5075555;28;20425;-66
2020/12/24 06:39:02;;;;;;;1.60;0.77;;;8.90;99.90;;;;;;5074734;28;20195;-66
2020/12/24 06:41:36;;;;;;;1.10;0.73;;;8.90;99.90;;;;;;5075143;28;20407;-66
2020/12/24 06:44:02;;;;;;;2.30;1.00;;;9.00;99.90;;;;;;5075266;28;20457;-66
2020/12/24 06:46:28;;;;;;;2.53;1.60;;;9.00;99.90;;;;;;5075011;28;20418;-66
2020/12/24 06:49:04;;;;;;;2.47;1.27;;;8.90;99.90;;;;;;5074870;28;20516;-67
2020/12/24 06:51:47;;;;;;;1.60;1.20;;;8.90;99.90;;;;;;5075167;28;20607;-66
2020/12/24 06:54:19;;;;;;;2.00;0.97;;;8.90;99.90;;;;;;5074765;28;20413;-66
2020/12/24 06:56:44;;;;;;;1.37;0.87;;;8.90;99.90;;;;;;5083427;28;20826;-66
2020/12/24 06:59:18;;;;;;;3.73;1.47;;;8.90;99.90;;;;;;5095027;28;20457;-64
2020/12/24 07:02:00;;;;;;;5.60;1.77;;;9.00;99.90;;;;;;5095073;28;20163;-65
2020/12/24 07:04:39;;;;;;;4.77;1.57;;;9.10;99.90;;;;;;5089537;28;20417;-66
2020/12/24 07:07:08;;;;;;;2.90;1.20;;;9.00;99.90;;;;;;5074768;28;20413;-66
2020/12/24 07:09:34;;;;;;;2.47;1.10;;;8.90;99.90;;;;;;5074576;28;20771;-65
2020/12/24 07:12:00;;;;;;;2.20;0.90;;;8.90;99.90;;;;;;5074697;28;20449;-65
2020/12/24 07:14:26;;;;;;;1.77;1.00;;;8.90;99.90;;;;;;5074490;28;20172;-66
2020/12/24 07:16:52;;;;;;;8.73;1.93;;;9.00;99.90;;;;;;5074582;28;20908;-66
2020/12/24 07:19:19;;;;;;;2.17;1.10;;;9.00;99.90;;;;;;5074064;28;20205;-66
2020/12/24 07:21:50;;;;;;;1.73;0.90;;;9.00;99.90;;;;;;5074564;28;20918;-65
2020/12/24 07:24:25;;;;;;;3.00;1.03;;;9.10;99.90;;;;;;5074511;28;20785;-66
2020/12/24 07:26:57;;;;;;;5.17;1.00;;;9.00;99.90;;;;;;5074309;28;20476;-65
2020/12/24 07:29:24;;;;;;;3.20;1.10;;;9.20;99.90;;;;;;5074122;28;20968;-66
2020/12/24 07:31:54;;;;;;;2.50;1.00;;;9.30;99.90;;;;;;5074901;28;20447;-66
2020/12/24 07:34:30;;;;;;;1.93;1.10;;;9.30;99.90;;;;;;5074059;28;20412;-65
2020/12/24 07:36:56;;;;;;;4.93;1.70;;;9.20;99.90;;;;;;5074374;28;20379;-66
2020/12/24 07:39:22;;;;;;;2.23;1.10;;;9.20;99.90;;;;;;5073742;28;20423;-65
2020/12/24 07:41:48;;;;;;;3.67;1.27;;;9.30;99.90;;;;;;5074399;28;20411;-66
2020/12/24 07:44:16;;;;;;;4.50;1.50;;;9.30;99.90;;;;;;5074054;28;20415;-66
2020/12/24 07:46:43;;;;;;;4.10;1.80;;;9.40;99.90;;;;;;5074184;28;20847;-65
2020/12/24 07:49:09;;;;;;;3.40;1.00;;;9.30;99.90;;;;;;5073486;28;20518;-65
2020/12/24 07:51:34;;;;;;;4.53;1.30;;;9.40;99.90;;;;;;5073934;28;20890;-66
2020/12/24 07:54:08;;;;;;;2.80;1.30;;;9.40;99.90;;;;;;5073709;28;20180;-66
2020/12/24 07:56:35;;;;;;;4.13;1.83;;;9.40;99.90;;;;;;5073999;28;20176;-66
2020/12/24 07:59:03;;;;;;;3.37;1.43;;;9.40;99.90;;;;;;5073514;28;20929;-65
2020/12/24 08:01:29;;;;;;;2.47;1.47;;;9.50;99.90;;;;;;5073580;28;20425;-65
2020/12/24 08:03:59;;;;;;;2.90;1.30;;;9.70;99.90;;;;;;5073314;28;20408;-66
2020/12/24 08:06:25;;;;;;;3.37;1.20;;;9.60;99.90;;;;;;5073715;28;20812;-65
2020/12/24 08:08:51;;;;;;;3.00;1.30;;;9.50;99.90;;;;;;5073474;28;20800;-65
2020/12/24 08:11:17;;;;;;;3.27;1.33;;;9.50;99.90;;;;;;5073087;28;20458;-65
2020/12/24 08:13:43;;;;;;;4.67;1.53;;;9.60;99.90;;;;;;5073454;28;20418;-65
2020/12/24 08:16:12;;;;;;;2.00;1.37;;;9.70;99.90;;;;;;5073692;28;20201;-65
2020/12/24 08:18:43;;;;;;;3.00;1.53;;;9.60;99.90;;;;;;5073162;28;20657;-65
2020/12/24 08:21:21;;;;;;;7.53;1.87;;;9.70;99.90;;;;;;5072983;28;20415;-65
2020/12/24 08:23:59;;;;;;;7.03;1.90;;;9.50;99.90;;;;;;5073277;28;20403;-66
2020/12/24 08:26:25;;;;;;;3.20;1.27;;;9.60;99.90;;;;;;5073057;28;20527;-66
2020/12/24 08:29:00;;;;;;;2.97;1.30;;;9.60;99.90;;;;;;5073957;28;20546;-66
2020/12/24 08:31:31;;;;;;;4.67;1.27;;;9.60;99.90;;;;;;5072579;28;20458;-67
2020/12/24 08:33:57;;;;;;;2.27;1.10;;;9.70;99.90;;;;;;5072838;28;20790;-65
2020/12/24 08:36:26;;;;;;;2.80;1.10;;;9.60;99.90;;;;;;5073315;28;20412;-65
2020/12/24 08:39:06;;;;;;;3.93;1.37;;;9.60;99.90;;;;;;5073242;28;20264;-65
2020/12/24 08:41:35;;;;;;;2.13;1.20;;;9.50;99.90;;;;;;5073189;28;20541;-66
2020/12/24 08:44:02;;;;;;;3.23;1.10;;;9.30;99.90;;;;;;5073014;28;20415;-66
2020/12/24 08:46:28;;;;;;;1.80;1.33;;;9.40;99.90;;;;;;5072700;28;20406;-67
2020/12/24 08:48:53;;;;;;;1.57;0.87;;;9.30;99.90;;;;;;5073220;28;20441;-61
2020/12/24 08:51:20;;;;;;;3.57;1.00;;;9.20;99.90;;;;;;5073019;28;20206;-61
2020/12/24 08:53:46;;;;;;;1.67;0.80;;;9.30;99.90;;;;;;5073290;28;20543;-60
2020/12/24 08:56:16;;;;;;;3.33;1.00;;;9.30;99.90;;;;;;5079996;28;20430;-61
2020/12/24 08:58:53;;;;;;;2.60;0.93;;;9.30;99.90;;;;;;5072894;28;20438;-61
2020/12/24 09:01:20;;;;;;;3.60;1.30;;;9.20;99.90;;;;;;5072544;28;20927;-60
2020/12/24 09:03:46;;;;;;;2.30;1.07;;;9.20;99.90;;;;;;5072677;28;20460;-61
2020/12/24 09:06:17;;;;;;;1.80;1.03;;;9.30;99.90;;;;;;5072871;28;20723;-62
2020/12/24 09:08:50;;;;;;;1.67;0.80;;;9.30;99.90;;;;;;5073128;28;20455;-66
2020/12/24 09:11:26;;;;;;;3.03;0.87;;;9.30;99.90;;;;;;5072956;28;20489;-66
2020/12/24 09:14:07;;;;;;;1.27;1.00;;;9.20;99.90;;;;;;5073297;28;20404;-66
2020/12/24 09:16:34;;;;;;;2.00;1.07;;;9.20;99.90;;;;;;5072527;28;20540;-67
2020/12/24 09:19:09;;;;;;;2.77;0.80;;;9.30;99.90;;;;;;5072691;28;20934;-66
2020/12/24 09:21:35;;;;;;;1.93;0.90;;;9.30;99.90;;;;;;5072686;28;20416;-65
2020/12/24 09:24:08;;;;;;;2.10;0.90;;;9.40;99.90;;;;;;5072970;28;20421;-65
2020/12/24 09:26:48;;;;;;;2.80;1.20;;;9.30;99.90;;;;;;5083044;28;20431;-66
2020/12/24 09:29:14;;;;;;;2.70;1.00;;;9.50;99.90;;;;;;5072613;28;20825;-65
2020/12/24 09:31:40;;;;;;;1.13;0.70;;;9.40;99.90;;;;;;5072232;28;20466;-66
2020/12/24 09:34:07;;;;;;;1.10;0.70;;;9.50;99.90;;;;;;5072503;28;20768;-65
2020/12/24 09:36:33;;;;;;;1.80;0.90;;;9.60;99.90;;;;;;5072626;28;20399;-65
2020/12/24 09:38:58;;;;;;;2.50;1.07;;;9.70;99.90;;;;;;5072427;28;20800;-65
2020/12/24 09:41:24;;;;;;;1.77;0.80;;;9.70;99.90;;;;;;5072923;28;20431;-65
2020/12/24 09:43:50;;;;;;;1.97;0.80;;;9.60;99.90;;;;;;5073076;28;20177;-66
2020/12/24 09:46:16;;;;;;;1.37;0.97;;;9.60;99.90;;;;;;5076366;28;20622;-65
2020/12/24 09:48:41;;;;;;;3.10;1.00;;;9.50;99.90;;;;;;5075871;28;20193;-66
2020/12/24 09:51:07;;;;;;;1.70;0.80;;;9.50;99.90;;;;;;5076122;28;20455;-65
2020/12/24 09:53:33;;;;;;;1.90;0.70;;;9.60;99.90;;;;;;5074758;28;20172;-66
2020/12/24 09:55:59;;;;;;;0.80;0.70;;;9.50;99.90;;;;;;5076603;28;20497;-65
2020/12/24 09:58:24;;;;;;;2.20;1.07;;;9.50;99.90;;;;;;5077040;28;20192;-65
2020/12/24 10:00:50;;;;;;;3.47;0.80;;;9.60;99.90;;;;;;5076598;28;20170;-65
2020/12/24 10:03:15;;;;;;;3.40;0.93;;;9.60;99.90;;;;;;5074553;28;20179;-65
2020/12/24 10:05:41;;;;;;;3.03;0.80;;;9.80;99.90;;;;;;5076281;28;20169;-64
2020/12/24 10:08:07;;;;;;;0.70;0.60;;;9.90;99.90;;;;;;5076241;28;20225;-65
2020/12/24 10:10:32;;;;;;;2.73;0.97;;;9.80;99.90;;;;;;5076094;28;20198;-66
2020/12/24 10:12:58;;;;;;;3.40;0.90;;;9.90;99.90;;;;;;5076453;28;20536;-66
2020/12/24 10:15:23;;;;;;;1.90;0.97;;;9.90;99.90;;;;;;5076171;28;20181;-66
2020/12/24 10:17:49;;;;;;;4.67;0.90;;;9.90;99.90;;;;;;5074625;28;20190;-66
2020/12/24 10:20:15;;;;;;;1.50;1.30;;;9.90;99.90;;;;;;5076186;28;20193;-65
2020/12/24 10:22:40;;;;;;;2.40;1.00;;;9.80;99.90;;;;;;5077245;28;20192;-62
2020/12/24 10:25:06;;;;;;;1.10;0.80;;;9.80;99.90;;;;;;5076090;28;20187;-62
2020/12/24 10:27:31;;;;;;;3.77;1.00;;;9.90;99.90;;;;;;5075355;28;20173;-62
2020/12/24 10:29:57;;;;;;;2.40;0.87;;;10.00;99.90;;;;;;5075380;28;20174;-62
2020/12/24 10:32:22;;;;;;;1.17;0.70;;;10.20;99.90;;;;;;5075406;28;20249;-62
2020/12/24 10:34:48;;;;;;;3.20;1.27;;;10.20;99.90;;;;;;5075555;28;20203;-62
2020/12/24 10:37:14;;;;;;;1.10;0.80;;;10.40;99.90;;;;;;5076062;28;20201;-62
2020/12/24 10:39:40;;;;;;;1.47;0.80;;;10.40;99.90;;;;;;5074782;28;20285;-61
2020/12/24 10:42:05;;;;;;;2.20;1.00;;;10.50;99.90;;;;;;5075263;28;20177;-62
2020/12/24 10:44:31;;;;;;;1.50;1.00;;;10.40;99.90;;;;;;5075618;28;20177;-60
2020/12/24 10:46:57;;;;;;;1.93;0.80;;;10.60;99.90;;;;;;5075603;28;20185;-61
2020/12/24 10:49:23;;;;;;;1.30;0.80;;;10.70;99.90;;;;;;5075187;28;20201;-61
2020/12/24 10:51:49;;;;;;;1.63;0.60;;;10.60;99.90;;;;;;5075054;28;20484;-60
2020/12/24 10:54:15;;;;;;;1.00;0.80;;;10.40;99.90;;;;;;5074553;28;20412;-62
2020/12/24 10:56:48;;;;;;;1.37;0.93;;;10.40;99.90;;;;;;5075062;28;20176;-61
2020/12/24 10:59:14;;;;;;;1.30;0.63;;;10.50;99.90;;;;;;5076090;28;20205;-66
2020/12/24 11:01:47;;;;;;;2.13;0.97;;;10.50;99.90;;;;;;5092906;28;20529;-65
2020/12/24 11:04:14;;;;;;;2.57;0.90;;;10.30;99.90;;;;;;5095014;28;20925;-66
2020/12/24 11:06:42;;;;;;;1.70;0.80;;;10.40;99.90;;;;;;5095524;28;20873;-67
2020/12/24 11:09:08;;;;;;;1.93;0.80;;;10.40;99.90;;;;;;5080138;28;20436;-66
2020/12/24 11:11:35;;;;;;;1.70;0.63;;;10.30;99.90;;;;;;5076737;28;20796;-63
2020/12/24 11:14:01;;;;;;;1.07;0.63;;;10.30;99.90;;;;;;5076636;28;20405;-62
2020/12/24 11:16:26;;;;;;;0.90;0.50;;;10.70;99.90;;;;;;5076926;28;20431;-63
2020/12/24 11:18:52;;;;;;;2.30;0.60;;;10.90;99.90;;;;;;5077012;28;20967;-62
2020/12/24 11:21:18;;;;;;;0.80;0.60;;;11.10;99.90;;;;;;5076998;28;20178;-62
2020/12/24 11:23:44;;;;;;;1.33;0.90;;;10.80;99.90;;;;;;5076045;28;20546;-63
2020/12/24 11:26:09;;;;;;;2.13;0.70;;;10.50;99.90;;;;;;5077174;28;20450;-62
2020/12/24 11:28:35;;;;;;;1.47;0.60;;;10.20;99.90;;;;;;5076055;28;20427;-63
2020/12/24 11:31:01;;;;;;;1.57;0.73;;;10.20;99.90;;;;;;5075093;28;20254;-63
2020/12/24 11:33:26;;;;;;;1.10;0.70;;;11.20;99.90;;;;;;5073988;28;20189;-63
2020/12/24 11:35:52;;;;;;;1.07;0.67;;;12.00;99.90;;;;;;5074057;28;20203;-63
2020/12/24 11:38:18;;;;;;;1.10;0.73;;;13.10;99.90;;;;;;5073741;28;20205;-62
2020/12/24 11:40:43;;;;;;;0.90;0.53;;;13.90;99.90;;;;;;5074566;28;20662;-63
2020/12/24 11:43:09;;;;;;;1.10;0.60;;;13.70;99.90;;;;;;5074039;28;20538;-62
2020/12/24 11:45:34;;;;;;;0.80;0.60;;;13.80;99.90;;;;;;5073834;28;20356;-63
2020/12/24 11:48:00;;;;;;;0.80;0.50;;;14.10;99.90;;;;;;5073587;28;20198;-64
2020/12/24 11:50:25;;;;;;;0.80;0.60;;;14.40;99.90;;;;;;5073868;28;20198;-63
2020/12/24 11:52:51;;;;;;;1.00;0.60;;;14.80;99.90;;;;;;5074377;28;20603;-61
2020/12/24 11:55:17;;;;;;;0.90;0.53;;;14.80;99.40;;;;;;5073642;28;20188;-63
2020/12/24 11:57:42;;;;;;;2.20;0.90;;;14.00;99.90;;;;;;5073819;28;20198;-63
2020/12/24 12:00:09;;;;;;;1.00;0.70;;;13.70;99.90;;;;;;5073918;28;20176;-63
2020/12/24 12:02:36;;;;;;;1.10;0.60;;;13.30;99.90;;;;;;5073268;28;20170;-62
2020/12/24 12:05:02;;;;;;;1.10;0.50;;;14.20;99.90;;;;;;5072628;28;20972;-63
2020/12/24 12:07:27;;;;;;;1.00;0.70;;;14.40;99.90;;;;;;5072702;28;20412;-63
2020/12/24 12:09:53;;;;;;;1.60;0.50;;;15.00;99.60;;;;;;5073039;28;20220;-64
2020/12/24 12:12:18;;;;;;;0.80;0.50;;;14.90;99.20;;;;;;5073286;28;20168;-63
2020/12/24 12:14:44;;;;;;;1.23;0.60;;;15.00;99.20;;;;;;5073306;28;20166;-62
2020/12/24 12:17:15;;;;;;;1.10;0.70;;;14.70;99.30;;;;;;5073256;28;20535;-63
2020/12/24 12:19:44;;;;;;;3.10;0.50;;;14.80;99.90;;;;;;5081011;28;20630;-63
2020/12/24 12:22:10;;;;;;;1.60;0.70;;;14.10;99.70;;;;;;5093459;28;20409;-63
2020/12/24 12:24:36;;;;;;;2.27;0.60;;;14.10;99.90;;;;;;5093417;28;20413;-63
2020/12/24 12:27:01;;;;;;;0.90;0.50;;;14.50;99.80;;;;;;5093406;28;20914;-63
2020/12/24 12:29:27;;;;;;;1.10;0.40;;;14.30;99.80;;;;;;5093260;28;20197;-64
2020/12/24 12:31:52;;;;;;;0.93;0.67;;;13.90;99.90;;;;;;5093261;28;20726;-62
2020/12/24 12:34:18;;;;;;;0.80;0.40;;;13.30;99.90;;;;;;5091740;28;20174;-63
2020/12/24 12:36:44;;;;;;;1.20;0.50;;;12.90;99.90;;;;;;5073920;28;20177;-62
2020/12/24 12:39:09;;;;;;;1.03;0.60;;;12.70;99.90;;;;;;5073347;28;20190;-62
2020/12/24 12:41:35;;;;;;;0.90;0.60;;;12.20;99.90;;;;;;5073380;28;20193;-61
2020/12/24 12:44:01;;;;;;;1.30;0.90;;;12.10;99.90;;;;;;5073859;28;20173;-66
2020/12/24 12:46:27;;;;;;;1.13;0.63;;;11.80;99.90;;;;;;5073115;28;20276;-66
2020/12/24 12:48:53;;;;;;;0.70;0.70;;;11.50;99.90;;;;;;5071593;28;20273;-66
2020/12/24 12:51:19;;;;;;;1.63;0.60;;;11.40;99.90;;;;;;5073391;28;20560;-65